createdAt,value
2017-09-23T00:02:00.486Z,7.53
2017-09-23T00:04:27.411Z,9.00
2017-09-23T00:06:53.601Z,9.73
2017-09-23T00:09:19.782Z,14.77
2017-09-23T00:11:46.715Z,12.63
2017-09-23T00:14:12.992Z,15.73
2017-09-23T00:16:39.172Z,14.30
2017-09-23T00:19:05.370Z,12.13
2017-09-23T00:21:31.582Z,10.80
2017-09-23T00:23:57.768Z,19.23
2017-09-23T00:26:23.942Z,19.63
2017-09-23T00:28:50.495Z,16.13
2017-09-23T00:31:16.717Z,17.80
2017-09-23T00:33:44.471Z,17.37
2017-09-23T00:36:10.667Z,18.03
2017-09-23T00:38:37.578Z,22.87
2017-09-23T00:41:04.138Z,15.60
2017-09-23T00:43:30.336Z,15.80
2017-09-23T00:45:57.274Z,16.60
2017-09-23T00:48:23.474Z,18.17
2017-09-23T00:50:49.667Z,14.53
2017-09-23T00:53:17.373Z,18.20
2017-09-23T00:55:43.575Z,15.30
2017-09-23T00:58:10.881Z,17.73
2017-09-23T01:00:37.436Z,20.97
2017-09-23T01:03:03.713Z,17.97
2017-09-23T01:05:30.272Z,24.83
2017-09-23T01:07:58.141Z,20.17
2017-09-23T01:10:25.587Z,18.27
2017-09-23T01:12:52.520Z,27.30
2017-09-23T01:15:18.683Z,21.53
2017-09-23T01:17:44.910Z,21.93
2017-09-23T01:20:11.836Z,21.43
2017-09-23T01:22:39.134Z,24.27
2017-09-23T01:25:07.278Z,25.47
2017-09-23T01:27:33.848Z,26.80
2017-09-23T01:30:00.075Z,17.73
2017-09-23T01:32:27.995Z,21.43
2017-09-23T01:34:54.177Z,22.63
2017-09-23T01:37:20.355Z,17.27
2017-09-23T01:39:46.530Z,18.53
2017-09-23T01:42:13.495Z,13.03
2017-09-23T01:44:40.037Z,11.63
2017-09-23T01:47:06.910Z,15.03
2017-09-23T01:49:36.153Z,13.13
2017-09-23T01:52:02.639Z,18.60
2017-09-23T01:54:28.838Z,12.10
2017-09-23T01:56:56.750Z,11.40
2017-09-23T01:59:22.978Z,17.10
2017-09-23T02:01:49.130Z,14.50
2017-09-23T02:04:15.374Z,13.30
2017-09-23T02:06:41.550Z,20.43
2017-09-23T02:09:07.702Z,13.20
2017-09-23T02:11:33.861Z,35.33
2017-09-23T02:14:00.054Z,15.13
2017-09-23T02:16:26.223Z,18.00
2017-09-23T02:18:53.566Z,15.33
2017-09-23T02:21:19.729Z,19.67
2017-09-23T02:23:45.932Z,9.50
2017-09-23T02:26:12.886Z,11.93
2017-09-23T02:28:40.562Z,12.23
2017-09-23T02:31:07.466Z,19.87
2017-09-23T02:33:35.135Z,23.87
2017-09-23T02:36:01.492Z,21.63
2017-09-23T02:38:27.693Z,18.40
2017-09-23T02:40:54.623Z,22.57
2017-09-23T02:43:21.183Z,23.80
2017-09-23T02:45:48.946Z,19.73
2017-09-23T02:48:15.123Z,21.03
2017-09-23T02:50:41.393Z,22.43
2017-09-23T02:53:07.566Z,22.43
2017-09-23T02:55:34.014Z,23.63
2017-09-23T02:58:00.351Z,25.27
2017-09-23T03:00:26.523Z,22.30
2017-09-23T03:02:54.199Z,19.17
2017-09-23T03:05:20.495Z,24.73
2017-09-23T03:07:46.634Z,28.90
2017-09-23T03:10:12.782Z,25.07
2017-09-23T03:12:38.962Z,21.20
2017-09-23T03:15:05.130Z,28.87
2017-09-23T03:17:32.053Z,29.40
2017-09-23T03:19:58.221Z,24.63
2017-09-23T03:22:25.127Z,27.20
2017-09-23T03:24:51.298Z,32.77
2017-09-23T03:27:18.430Z,19.80
2017-09-23T03:29:45.337Z,24.40
2017-09-23T03:32:11.523Z,18.27
2017-09-23T03:34:38.450Z,28.67
2017-09-23T03:37:05.346Z,24.67
2017-09-23T03:39:31.501Z,23.03
2017-09-23T03:41:57.708Z,31.80
2017-09-23T03:44:23.861Z,31.07
2017-09-23T03:46:50.026Z,32.53
2017-09-23T03:49:16.923Z,33.80
2017-09-23T03:51:43.167Z,32.90
2017-09-23T03:54:09.323Z,32.70
2017-09-23T03:56:36.193Z,31.43
2017-09-23T03:59:02.358Z,36.10
2017-09-23T04:01:28.518Z,38.77
2017-09-23T04:03:55.464Z,32.00
2017-09-23T04:06:22.366Z,32.90
2017-09-23T04:08:48.571Z,30.40
2017-09-23T04:11:14.711Z,32.33
2017-09-23T04:13:40.921Z,30.00
2017-09-23T04:16:07.080Z,33.73
2017-09-23T04:18:33.275Z,40.33
2017-09-23T04:20:59.455Z,40.60
2017-09-23T04:23:26.357Z,35.37
2017-09-23T04:25:52.505Z,22.50
2017-09-23T04:28:18.651Z,29.47
2017-09-23T04:30:44.827Z,26.80
2017-09-23T04:33:11.825Z,23.23
2017-09-23T04:35:38.024Z,27.00
2017-09-23T04:38:04.170Z,29.23
2017-09-23T04:40:30.353Z,34.60
2017-09-23T04:43:01.667Z,27.47
2017-09-23T04:45:27.924Z,29.17
2017-09-23T04:47:54.426Z,32.10
2017-09-23T04:50:21.604Z,31.23
2017-09-23T04:52:48.505Z,34.27
2017-09-23T04:55:15.285Z,33.43
2017-09-23T04:57:42.214Z,34.17
2017-09-23T05:00:09.106Z,38.97
2017-09-23T05:02:35.365Z,44.47
2017-09-23T05:05:04.769Z,38.40
2017-09-23T05:07:34.002Z,34.60
2017-09-23T05:10:04.927Z,37.60
2017-09-23T05:12:33.481Z,36.03
2017-09-23T05:14:59.657Z,44.70
2017-09-23T05:17:28.848Z,39.90
2017-09-23T05:19:57.524Z,46.37
2017-09-23T05:22:27.431Z,41.00
2017-09-23T05:24:54.874Z,40.93
2017-09-23T05:27:21.084Z,45.37
2017-09-23T05:29:47.682Z,37.73
2017-09-23T05:32:14.558Z,42.87
2017-09-23T05:34:40.757Z,44.07
2017-09-23T05:37:08.214Z,41.60
2017-09-23T05:39:35.134Z,45.13
2017-09-23T05:42:01.357Z,42.57
2017-09-23T05:44:28.305Z,45.90
2017-09-23T05:46:56.359Z,48.07
2017-09-23T05:49:22.520Z,47.97
2017-09-23T05:51:48.676Z,43.77
2017-09-23T05:54:15.884Z,46.27
2017-09-23T05:56:42.794Z,46.60
2017-09-23T05:59:08.997Z,47.27
2017-09-23T06:01:36.915Z,49.87
2017-09-23T06:04:03.119Z,40.67
2017-09-23T06:06:29.296Z,35.90
2017-09-23T06:08:55.469Z,56.27
2017-09-23T06:11:21.713Z,47.30
2017-09-23T06:13:47.942Z,51.87
2017-09-23T06:16:14.435Z,37.47
2017-09-23T06:18:41.389Z,50.47
2017-09-23T06:21:07.566Z,37.40
2017-09-23T06:23:33.712Z,63.10
2017-09-23T06:26:00.654Z,54.73
2017-09-23T06:28:26.852Z,62.83
2017-09-23T06:30:53.057Z,76.97
2017-09-23T06:33:19.242Z,55.00
2017-09-23T06:35:47.059Z,56.67
2017-09-23T06:38:13.227Z,67.33
2017-09-23T06:40:39.425Z,61.27
2017-09-23T06:43:06.611Z,47.23
2017-09-23T06:45:33.010Z,59.13
2017-09-23T06:47:59.293Z,58.50
2017-09-23T06:50:26.654Z,64.20
2017-09-23T06:52:53.582Z,63.10
2017-09-23T06:55:19.796Z,62.20
2017-09-23T06:57:46.254Z,62.53
2017-09-23T07:00:14.632Z,56.40
2017-09-23T07:02:40.876Z,55.10
2017-09-23T07:05:07.799Z,57.37
2017-09-23T07:07:33.995Z,59.73
2017-09-23T07:10:01.336Z,51.80
2017-09-23T07:12:27.499Z,46.77
2017-09-23T07:14:53.662Z,43.10
2017-09-23T07:17:20.545Z,46.87
2017-09-23T07:19:46.726Z,44.40
2017-09-23T07:22:13.941Z,39.03
2017-09-23T07:24:41.996Z,43.53
2017-09-23T07:27:08.214Z,46.50
2017-09-23T07:29:34.976Z,48.80
2017-09-23T07:32:01.518Z,49.17
2017-09-23T07:34:27.688Z,52.30
2017-09-23T07:36:58.169Z,50.40
2017-09-23T07:39:24.495Z,47.60
2017-09-23T07:41:52.280Z,44.47
2017-09-23T07:44:18.849Z,49.30
2017-09-23T07:46:46.074Z,51.40
2017-09-23T07:49:13.440Z,44.00
2017-09-23T07:51:39.596Z,41.47
2017-09-23T07:54:07.546Z,44.63
2017-09-23T07:56:33.740Z,47.27
2017-09-23T07:59:00.474Z,43.07
2017-09-23T08:01:26.738Z,50.00
2017-09-23T08:03:52.925Z,46.93
2017-09-23T08:06:19.905Z,49.80
2017-09-23T08:08:46.833Z,48.60
2017-09-23T08:11:13.018Z,45.43
2017-09-23T08:13:40.502Z,44.57
2017-09-23T08:16:06.748Z,44.00
2017-09-23T08:18:32.942Z,47.07
2017-09-23T08:20:59.204Z,40.83
2017-09-23T08:23:26.998Z,44.93
2017-09-23T08:25:53.206Z,43.27
2017-09-23T08:28:19.386Z,46.23
2017-09-23T08:30:46.503Z,49.00
2017-09-23T08:33:13.615Z,44.80
2017-09-23T08:35:39.817Z,43.73
2017-09-23T08:38:06.028Z,44.00
2017-09-23T08:40:37.456Z,44.20
2017-09-23T08:43:03.714Z,47.00
2017-09-23T08:45:30.651Z,43.20
2017-09-23T08:47:58.834Z,40.07
2017-09-23T08:50:25.801Z,39.80
2017-09-23T08:52:58.211Z,35.57
2017-09-23T08:55:28.886Z,37.67
2017-09-23T08:57:55.119Z,51.33
2017-09-23T09:00:25.293Z,36.17
2017-09-23T09:02:51.470Z,34.43
2017-09-23T09:05:20.729Z,39.13
2017-09-23T09:07:46.940Z,29.17
2017-09-23T09:10:13.846Z,33.07
2017-09-23T09:12:40.786Z,33.27
2017-09-23T09:15:07.680Z,29.83
2017-09-23T09:17:33.878Z,29.80
2017-09-23T09:20:00.463Z,28.90
2017-09-23T09:22:26.798Z,27.87
2017-09-23T09:24:52.959Z,31.20
2017-09-23T09:27:19.888Z,28.90
2017-09-23T09:29:48.406Z,28.37
2017-09-23T09:32:14.637Z,30.23
2017-09-23T09:34:40.867Z,30.80
2017-09-23T09:37:07.346Z,27.47
2017-09-23T09:39:33.525Z,27.23
2017-09-23T09:41:59.702Z,28.70
2017-09-23T09:44:25.902Z,24.47
2017-09-23T09:46:52.299Z,26.13
2017-09-23T09:49:19.244Z,29.90
2017-09-23T09:51:46.177Z,26.50
2017-09-23T09:54:13.095Z,25.67
2017-09-23T09:56:39.286Z,27.30
2017-09-23T09:59:07.144Z,30.33
2017-09-23T10:01:34.848Z,36.43
2017-09-23T10:04:01.051Z,25.50
2017-09-23T10:06:27.652Z,25.00
2017-09-23T10:08:54.720Z,28.60
2017-09-23T10:11:20.953Z,25.93
2017-09-23T10:13:47.172Z,30.60
2017-09-23T10:16:13.364Z,31.70
2017-09-23T10:18:39.579Z,27.90
2017-09-23T10:21:05.738Z,29.17
2017-09-23T10:23:32.710Z,31.80
2017-09-23T10:25:58.901Z,31.37
2017-09-23T10:28:25.303Z,27.10
2017-09-23T10:30:51.587Z,30.37
2017-09-23T10:33:19.499Z,28.90
2017-09-23T10:35:45.679Z,40.37
2017-09-23T10:38:13.354Z,33.20
2017-09-23T10:40:41.555Z,40.30
2017-09-23T10:43:07.778Z,36.23
2017-09-23T10:45:33.963Z,42.23
2017-09-23T10:48:00.161Z,31.63
2017-09-23T10:50:26.357Z,34.03
2017-09-23T10:52:52.542Z,25.37
2017-09-23T10:55:19.543Z,27.20
2017-09-23T10:57:45.721Z,25.70
2017-09-23T11:00:12.695Z,27.63
2017-09-23T11:02:38.903Z,29.40
2017-09-23T11:05:05.875Z,26.03
2017-09-23T11:07:32.054Z,26.30
2017-09-23T11:09:58.242Z,26.33
2017-09-23T11:12:24.381Z,27.10
2017-09-23T11:14:50.618Z,31.80
2017-09-23T11:17:17.078Z,27.10
2017-09-23T11:19:43.254Z,25.30
2017-09-23T11:22:09.430Z,29.30
2017-09-23T11:24:35.598Z,27.80
2017-09-23T11:27:01.823Z,28.77
2017-09-23T11:29:28.715Z,32.40
2017-09-23T11:31:55.078Z,25.70
2017-09-23T11:34:22.030Z,28.50
2017-09-23T11:36:48.959Z,24.27
2017-09-23T11:39:15.159Z,25.73
2017-09-23T11:41:41.316Z,25.17
2017-09-23T11:44:07.510Z,30.20
2017-09-23T11:46:34.661Z,27.13
2017-09-23T11:49:00.816Z,26.37
2017-09-23T11:51:27.356Z,24.63
2017-09-23T11:53:53.514Z,26.30
2017-09-23T11:56:20.438Z,24.07
2017-09-23T11:58:46.665Z,25.50
2017-09-23T12:01:12.861Z,23.83
2017-09-23T12:03:39.018Z,26.47
2017-09-23T12:06:05.448Z,25.40
2017-09-23T12:08:31.625Z,22.53
2017-09-23T12:10:57.816Z,27.80
2017-09-23T12:13:24.561Z,28.27
2017-09-23T12:15:51.476Z,25.90
2017-09-23T12:18:17.655Z,24.10
2017-09-23T12:20:44.192Z,26.37
2017-09-23T12:23:11.310Z,28.50
2017-09-23T12:25:39.562Z,19.87
2017-09-23T12:28:06.966Z,23.37
2017-09-23T12:30:33.943Z,26.23
2017-09-23T12:33:00.095Z,22.23
2017-09-23T12:35:26.313Z,23.47
2017-09-23T12:37:53.272Z,18.30
2017-09-23T12:40:19.511Z,20.60
2017-09-23T12:42:46.049Z,21.33
2017-09-23T12:45:12.254Z,20.87
2017-09-23T12:47:38.462Z,18.67
2017-09-23T12:50:04.676Z,19.63
2017-09-23T12:52:30.844Z,17.07
2017-09-23T12:54:56.999Z,15.07
2017-09-23T12:57:23.191Z,14.90
2017-09-23T12:59:49.434Z,18.57
2017-09-23T13:02:15.639Z,16.23
2017-09-23T13:04:41.838Z,17.23
2017-09-23T13:07:08.123Z,17.50
2017-09-23T13:09:34.397Z,16.97
2017-09-23T13:12:01.294Z,15.93
2017-09-23T13:14:27.534Z,14.77
2017-09-23T13:16:53.742Z,15.37
2017-09-23T13:19:19.925Z,15.33
2017-09-23T13:21:47.236Z,12.73
2017-09-23T13:24:15.395Z,13.67
2017-09-23T13:26:41.942Z,12.50
2017-09-23T13:29:08.175Z,13.53
2017-09-23T13:31:34.364Z,13.03
2017-09-23T13:34:00.519Z,13.13
2017-09-23T13:36:26.706Z,12.53
2017-09-23T13:38:53.615Z,11.97
2017-09-23T13:41:20.542Z,12.40
2017-09-23T13:43:46.790Z,12.83
2017-09-23T13:46:12.999Z,12.93
2017-09-23T13:48:39.188Z,12.80
2017-09-23T13:51:06.914Z,12.87
2017-09-23T13:53:33.139Z,14.23
2017-09-23T13:55:59.356Z,12.30
2017-09-23T13:58:25.599Z,10.53
2017-09-23T14:00:51.777Z,12.53
2017-09-23T14:03:17.991Z,14.30
2017-09-23T14:05:44.143Z,13.07
2017-09-23T14:08:10.704Z,14.60
2017-09-23T14:10:36.924Z,12.63
2017-09-23T14:13:03.175Z,12.70
2017-09-23T14:15:29.340Z,11.03
2017-09-23T14:17:56.316Z,12.30
2017-09-23T14:20:22.483Z,13.20
2017-09-23T14:22:48.783Z,10.80
2017-09-23T14:25:14.931Z,11.00
2017-09-23T14:27:41.626Z,11.27
2017-09-23T14:30:07.870Z,12.37
2017-09-23T14:32:34.079Z,12.37
2017-09-23T14:35:00.287Z,16.80
2017-09-23T14:37:27.198Z,13.83
2017-09-23T14:39:53.350Z,15.27
2017-09-23T14:42:19.562Z,16.73
2017-09-23T14:44:45.741Z,15.60
2017-09-23T14:47:11.951Z,14.53
2017-09-23T14:49:38.886Z,13.97
2017-09-23T14:52:05.840Z,15.27
2017-09-23T14:54:32.783Z,13.60
2017-09-23T14:56:59.729Z,15.83
2017-09-23T14:59:26.670Z,19.13
2017-09-23T15:01:53.617Z,13.93
2017-09-23T15:04:20.524Z,23.00
2017-09-23T15:06:47.106Z,20.07
2017-09-23T15:09:14.047Z,17.23
2017-09-23T15:11:41.022Z,16.63
2017-09-23T15:14:07.224Z,16.30
2017-09-23T15:16:34.153Z,15.27
2017-09-23T15:19:00.359Z,17.37
2017-09-23T15:21:26.893Z,19.97
2017-09-23T15:23:53.258Z,16.30
2017-09-23T15:26:19.467Z,17.43
2017-09-23T15:28:45.673Z,15.60
2017-09-23T15:31:11.899Z,13.43
2017-09-23T15:33:38.124Z,13.70
2017-09-23T15:36:04.432Z,16.20
2017-09-23T15:38:30.610Z,15.83
2017-09-23T15:40:56.867Z,19.23
2017-09-23T15:43:24.212Z,18.33
2017-09-23T15:45:51.583Z,13.23
2017-09-23T15:48:18.573Z,14.53
2017-09-23T15:50:45.751Z,17.13
2017-09-23T15:53:11.990Z,16.80
2017-09-23T15:55:38.207Z,15.10
2017-09-23T15:58:04.435Z,34.57
2017-09-23T16:00:30.759Z,16.87
2017-09-23T16:02:57.842Z,14.87
2017-09-23T16:05:24.982Z,13.93
2017-09-23T16:07:56.925Z,12.63
2017-09-23T16:10:23.295Z,12.20
2017-09-23T16:12:50.226Z,14.03
2017-09-23T16:15:16.435Z,21.90
2017-09-23T16:17:42.672Z,17.83
2017-09-23T16:20:09.619Z,14.60
2017-09-23T16:22:35.853Z,13.43
2017-09-23T16:25:02.067Z,17.37
2017-09-23T16:27:28.265Z,15.53
2017-09-23T16:29:54.418Z,15.60
2017-09-23T16:32:20.612Z,14.57
2017-09-23T16:34:46.815Z,17.60
2017-09-23T16:37:13.779Z,20.73
2017-09-23T16:39:39.986Z,16.57
2017-09-23T16:42:06.948Z,20.10
2017-09-23T16:44:34.639Z,16.70
2017-09-23T16:47:02.544Z,22.40
2017-09-23T16:49:29.834Z,23.27
2017-09-23T16:51:59.705Z,21.50
2017-09-23T16:54:26.307Z,16.03
2017-09-23T16:56:52.532Z,15.10
2017-09-23T16:59:18.725Z,17.50
2017-09-23T17:01:46.029Z,17.23
2017-09-23T17:04:13.067Z,16.53
2017-09-23T17:06:39.904Z,19.40
2017-09-23T17:09:06.975Z,21.23
2017-09-23T17:11:33.129Z,21.73
2017-09-23T17:13:59.309Z,17.30
2017-09-23T17:16:26.592Z,18.33
2017-09-23T17:18:52.846Z,18.67
2017-09-23T17:21:19.113Z,20.53
2017-09-23T17:23:45.672Z,22.40
2017-09-23T17:26:12.912Z,20.20
2017-09-23T17:28:39.114Z,29.10
2017-09-23T17:31:06.111Z,23.70
2017-09-23T17:33:32.278Z,21.50
2017-09-23T17:35:59.358Z,16.97
2017-09-23T17:38:26.277Z,25.80
2017-09-23T17:40:53.209Z,17.87
2017-09-23T17:43:19.395Z,20.80
2017-09-23T17:45:45.612Z,18.20
2017-09-23T17:48:12.556Z,18.53
2017-09-23T17:50:38.746Z,18.93
2017-09-23T17:53:04.951Z,24.77
2017-09-23T17:55:31.143Z,26.30
2017-09-23T17:57:57.352Z,20.80
2017-09-23T18:00:24.283Z,22.40
2017-09-23T18:02:51.296Z,17.63
2017-09-23T18:05:17.501Z,18.03
2017-09-23T18:07:44.452Z,27.53
2017-09-23T18:10:10.671Z,21.37
2017-09-23T18:12:37.225Z,21.73
2017-09-23T18:15:03.514Z,23.40
2017-09-23T18:17:30.440Z,19.27
2017-09-23T18:19:57.061Z,20.03
2017-09-23T18:22:23.222Z,17.73
2017-09-23T18:24:49.462Z,23.47
2017-09-23T18:27:15.628Z,24.17
2017-09-23T18:29:42.213Z,20.33
2017-09-23T18:32:09.153Z,20.30
2017-09-23T18:34:36.106Z,23.97
2017-09-23T18:37:03.050Z,19.33
2017-09-23T18:39:29.975Z,23.50
2017-09-23T18:41:56.248Z,22.37
2017-09-23T18:44:22.472Z,16.23
2017-09-23T18:46:49.555Z,29.00
2017-09-23T18:49:16.103Z,23.97
2017-09-23T18:51:42.353Z,33.87
2017-09-23T18:54:09.663Z,20.97
2017-09-23T18:56:35.883Z,18.07
2017-09-23T18:59:02.103Z,21.03
2017-09-23T19:01:28.336Z,21.10
2017-09-23T19:03:54.613Z,18.27
2017-09-23T19:06:20.836Z,21.40
2017-09-23T19:08:47.031Z,21.87
2017-09-23T19:11:13.202Z,23.43
2017-09-23T19:13:40.907Z,23.80
2017-09-23T19:16:07.259Z,24.30
2017-09-23T19:18:33.486Z,20.97
2017-09-23T19:20:59.697Z,26.10
2017-09-23T19:23:26.783Z,25.27
2017-09-23T19:28:44.204Z,18.50
2017-09-23T19:31:10.363Z,24.70
2017-09-23T19:33:36.558Z,19.07
2017-09-23T19:36:02.758Z,17.30
2017-09-23T19:38:29.710Z,17.83
2017-09-23T19:40:56.607Z,20.10
2017-09-23T19:43:22.901Z,29.07
2017-09-23T19:45:49.156Z,22.20
2017-09-23T19:48:15.334Z,19.90
2017-09-23T19:50:42.287Z,22.57
2017-09-23T19:53:09.293Z,21.83
2017-09-23T19:55:35.488Z,20.53
2017-09-23T19:58:01.909Z,28.03
2017-09-23T20:00:28.193Z,31.77
2017-09-23T20:02:56.214Z,25.20
2017-09-23T20:05:24.021Z,30.37
2017-09-23T20:07:51.450Z,20.37
2017-09-23T20:10:17.664Z,22.67
2017-09-23T20:12:43.812Z,25.53
2017-09-23T20:15:10.023Z,23.03
2017-09-23T20:17:36.224Z,23.70
2017-09-23T20:20:03.190Z,24.37
2017-09-23T20:22:29.443Z,20.20
2017-09-23T20:24:55.671Z,19.43
2017-09-23T20:27:21.895Z,18.60
2017-09-23T20:29:48.171Z,21.50
2017-09-23T20:32:15.379Z,21.77
2017-09-23T20:34:42.266Z,27.20
2017-09-23T20:37:08.483Z,19.53
2017-09-23T20:39:34.664Z,21.23
2017-09-23T20:42:00.912Z,22.20
2017-09-23T20:44:27.191Z,21.97
2017-09-23T20:46:53.401Z,23.33
2017-09-23T20:49:19.616Z,23.43
2017-09-23T20:51:45.837Z,33.97
2017-09-23T20:54:12.049Z,23.63
2017-09-23T20:56:38.303Z,24.23
2017-09-23T20:59:04.503Z,28.80
2017-09-23T21:01:30.730Z,21.27
2017-09-23T21:03:57.274Z,22.33
2017-09-23T21:06:23.484Z,21.20
2017-09-23T21:08:50.541Z,22.00
2017-09-23T21:11:16.877Z,20.97
2017-09-23T21:13:43.065Z,27.27
2017-09-23T21:16:10.045Z,21.73
2017-09-23T21:18:38.513Z,23.33
2017-09-23T21:21:04.804Z,18.70
2017-09-23T21:23:30.998Z,23.43
2017-09-23T21:25:57.216Z,21.20
2017-09-23T21:28:23.422Z,22.40
2017-09-23T21:30:50.349Z,22.10
2017-09-23T21:33:17.409Z,21.50
2017-09-23T21:35:44.711Z,23.30
2017-09-23T21:38:10.989Z,22.80
2017-09-23T21:40:38.329Z,28.30
2017-09-23T21:43:04.611Z,28.40
2017-09-23T21:45:30.818Z,21.37
2017-09-23T21:47:57.762Z,25.07
2017-09-23T21:50:24.712Z,21.40
2017-09-23T21:52:51.265Z,21.07
2017-09-23T21:55:18.303Z,19.73
2017-09-23T21:57:45.216Z,21.57
2017-09-23T22:00:12.183Z,21.13
2017-09-23T22:02:39.100Z,27.00
2017-09-23T22:05:06.804Z,17.07
2017-09-23T22:07:33.767Z,25.53
2017-09-23T22:09:59.982Z,21.03
2017-09-23T22:12:26.914Z,23.33
2017-09-23T22:14:53.497Z,22.50
2017-09-23T22:17:19.695Z,19.17
2017-09-23T22:19:45.890Z,25.40
2017-09-23T22:22:13.774Z,32.57
2017-09-23T22:24:40.681Z,32.43
2017-09-23T22:27:06.903Z,27.50
2017-09-23T22:29:33.069Z,24.80
2017-09-23T22:32:00.007Z,26.87
2017-09-23T22:34:26.198Z,22.17
2017-09-23T22:36:52.395Z,26.13
2017-09-23T22:39:18.624Z,23.53
2017-09-23T22:41:44.858Z,26.57
2017-09-23T22:44:11.081Z,25.00
2017-09-23T22:46:37.263Z,21.10
2017-09-23T22:49:03.483Z,22.50
2017-09-23T22:51:29.678Z,27.77
2017-09-23T22:53:56.058Z,24.80
2017-09-23T22:56:22.303Z,24.50
2017-09-23T22:58:49.234Z,30.13
2017-09-23T23:01:15.426Z,25.90
2017-09-23T23:03:41.604Z,22.00
2017-09-23T23:06:07.803Z,30.87
2017-09-23T23:08:34.813Z,22.67
2017-09-23T23:11:00.972Z,25.43
2017-09-23T23:13:27.183Z,24.03
2017-09-23T23:15:53.344Z,20.00
2017-09-23T23:18:19.540Z,24.70
2017-09-23T23:20:45.766Z,24.13
2017-09-23T23:23:11.966Z,23.00
2017-09-23T23:25:38.854Z,24.63
2017-09-23T23:28:05.031Z,23.73
2017-09-23T23:30:31.988Z,25.30
2017-09-23T23:32:58.901Z,30.53
2017-09-23T23:35:26.430Z,36.57
2017-09-23T23:37:52.622Z,23.77
2017-09-23T23:40:19.170Z,26.50
2017-09-23T23:42:45.399Z,24.13
2017-09-23T23:45:11.601Z,25.10
2017-09-23T23:47:38.530Z,31.60
2017-09-23T23:50:06.182Z,29.83
2017-09-23T23:52:32.387Z,25.63
2017-09-23T23:54:58.592Z,24.97
2017-09-23T23:57:24.766Z,28.43
2017-09-23T23:59:50.935Z,22.17
